หน้าหลัก
METAR-TAF:

METAR-TAF

ท่าอากาศยาน :

Wittering, อังกฤษ

ละติจูด: 52-37N, ลองจิจูด: 000-28W, ความสูง: 84 ม.

การสังเกตสภาพอากาศปัจจุบัน

รายงานได้ทำขึ้นเมื่อ 31 นาทีที่แล้ว ณ เวลา 01:20 UTC
ลม 7 นอตจากเหนือ
อุณหภูมิ 10°C
ความชื้น 93%
ความกดอากาศ 1019 hPa
ทัศนวิสัย 10 กม. หรือมากกว่า

METAR: EGXT 190120Z AUTO 36007KT 9999 OVC011/// 10/09 Q1019

เวลา: 02:51 (01:51 UTC)

การพยากรณ์

รายงานได้ทำขึ้นเมื่อ 17 ชั่วโมงและ 59 นาทีที่แล้ว ณ เวลา 07:52 UTC
การพยากรณ์มีผลตั้งแต่วันที่ 18 ณ เวลา 09 UTC จนถึงวันที่ 18 ณ เวลา 18 UTC
ลม 9 นอตจากเหนือ/ตะวันตกเฉียงเหนือ
ทัศนวิสัย 10 กม. หรือมากกว่า
มีเมฆน้อยที่ความสูง 2500 ฟุต
ความน่าจะเป็น 30% :
ชั่วคราว
ตั้งแต่วันที่ 18 ณ เวลา 09 UTC จนถึงวันที่ 18 ณ เวลา 11 UTC
มีเมฆกระจายเป็นบางส่วนที่ความสูง 2200 ฟุต
ความน่าจะเป็น 40% :
ชั่วคราว
ตั้งแต่วันที่ 18 ณ เวลา 14 UTC จนถึงวันที่ 18 ณ เวลา 18 UTC
ทัศนวิสัย: 7000 ม.
มีเมฆเป็นส่วนมากเว้นเป็นระยะที่ความสูง 2500 ฟุต, คิวมูโลนิมบัส.
ฝนโปรยปราย,

TAF: EGXT 180752Z 1809/1818 33009KT 9999 FEW025 PROB30 TEMPO 1809/1811 SCT022 PROB40 TEMPO 1814/1818 7000 SHRA BKN025CB

สังเกตการณ์สภาพอากาศและพยากรณ์อากาศของสนามบินมากกว่า 4000 แห่ง (รายงาน METAR และ TAF).

สถานีที่ดูได้จะแสดงไว้ด้วยจุดสีเหลืองและสีแดงบนแผนที่.

เลื่อนเมาส์ไปเหนือจุดเพื่อดูชื่อสถานี.

แล้วคลิกเพื่อดูสังเกตการณ์และการพยากรณ์สภาพอากาศ.

ในการเปลี่ยนแผนที่: คลิกที่ปุ่มสีเขียวที่มีกากบาทสีดำเพื่อซูมเข้า; ที่ปุ่มสีเขียวที่มีขีดเพื่อซูมออก; หรือที่ลูกศรสีเขียวเพื่อไปยังแผนที่ที่อยู่ติดกัน.


METAR-TAF: